Time;durP1;ratioP1;P1;durP2;ratioP2;P2;SDS_P1;SDS_P2;PMS_P1;PMS_P2;Temp;Humidity;BMP_temperature;BMP_pressure;BME280_temperature;BME280_humidity;BME280_pressure;Samples;Min_cycle;Max_cycle;Signal;HPM_P1;HPM_P2
2023/04/19 00:02:59;;;;;;;2.33;0.88;;;;;;;;;;10268183;28;20229;-76
2023/04/19 00:08:00;;;;;;;1.13;1.13;;;;;;;;;;10261127;28;20332;-75
2023/04/19 00:13:01;;;;;;;2.05;1.05;;;;;;;;;;10247698;28;20214;-75
2023/04/19 00:18:02;;;;;;;2.13;1.40;;;;;;;;;;10263051;28;20236;-76
2023/04/19 00:23:03;;;;;;;1.13;1.02;;;;;;;;;;10242185;28;20229;-77
2023/04/19 00:28:04;;;;;;;1.17;1.15;;;;;;;;;;10257813;28;20214;-76
2023/04/19 00:33:11;;;;;;;0.98;0.82;;;;;;;;;;10246730;28;20219;-75
2023/04/19 00:38:12;;;;;;;1.30;1.20;;;;;;;;;;10264447;28;20325;-73
2023/04/19 00:43:17;;;;;;;2.30;0.98;;;;;;;;;;10255319;28;20221;-74
2023/04/19 00:48:18;;;;;;;3.88;1.67;;;;;;;;;;10266776;28;22335;-73
2023/04/19 00:53:20;;;;;;;3.50;1.20;;;;;;;;;;10254763;28;20284;-74
2023/04/19 00:58:21;;;;;;;1.20;1.08;;;;;;;;;;10254015;28;21275;-74
2023/04/19 01:03:22;;;;;;;2.22;1.02;;;;;;;;;;10262752;28;20221;-73
2023/04/19 01:08:25;;;;;;;4.78;1.52;;;;;;;;;;10253477;28;20221;-72
2023/04/19 01:13:28;;;;;;;3.10;1.33;;;;;;;;;;10252112;28;20308;-75
2023/04/19 01:18:36;;;;;;;2.63;1.40;;;;;;;;;;10266504;28;20896;-74
2023/04/19 01:23:38;;;;;;;1.73;0.90;;;;;;;;;;10264249;28;20332;-76
2023/04/19 01:28:39;;;;;;;1.20;1.10;;;;;;;;;;10252912;28;20229;-74
2023/04/19 01:33:40;;;;;;;1.25;1.25;;;;;;;;;;10267131;28;20292;-77
2023/04/19 01:38:46;;;;;;;1.33;1.10;;;;;;;;;;10265756;28;20245;-76
2023/04/19 01:43:47;;;;;;;1.30;1.20;;;;;;;;;;10268504;28;20245;-75
2023/04/19 01:48:49;;;;;;;0.85;0.85;;;;;;;;;;10247790;28;20237;-75
2023/04/19 01:53:53;;;;;;;2.80;1.20;;;;;;;;;;10262848;28;20236;-73
2023/04/19 01:58:54;;;;;;;1.00;1.00;;;;;;;;;;10242386;28;20332;-75
2023/04/19 02:03:55;;;;;;;3.90;1.33;;;;;;;;;;10255469;28;20257;-75
2023/04/19 02:08:56;;;;;;;3.22;1.10;;;;;;;;;;10234413;28;20221;-74
2023/04/19 02:13:57;;;;;;;1.75;1.30;;;;;;;;;;10254532;28;20248;-75
2023/04/19 02:18:58;;;;;;;1.05;0.73;;;;;;;;;;10262761;28;20213;-76
2023/04/19 02:24:00;;;;;;;0.77;0.77;;;;;;;;;;10255627;28;20245;-75
2023/04/19 02:29:01;;;;;;;0.80;0.80;;;;;;;;;;10259348;28;20279;-74
2023/04/19 02:34:02;;;;;;;0.80;0.80;;;;;;;;;;10251474;28;20213;-74
2023/04/19 02:39:04;;;;;;;0.95;0.70;;;;;;;;;;10254570;28;20339;-75
2023/04/19 02:44:05;;;;;;;0.80;0.80;;;;;;;;;;10256139;28;20256;-77
2023/04/19 02:49:06;;;;;;;3.70;0.90;;;;;;;;;;10256930;28;20233;-73
2023/04/19 02:54:07;;;;;;;0.82;0.82;;;;;;;;;;10228363;28;20284;-77
2023/04/19 02:59:08;;;;;;;2.15;0.80;;;;;;;;;;10259777;28;20213;-76
2023/04/19 03:04:10;;;;;;;2.08;0.93;;;;;;;;;;10259823;28;20240;-74
2023/04/19 03:09:12;;;;;;;1.08;0.63;;;;;;;;;;10250091;28;20296;-74
2023/04/19 03:14:13;;;;;;;0.50;0.50;;;;;;;;;;10268322;28;20336;-75
2023/04/19 03:19:14;;;;;;;1.38;0.80;;;;;;;;;;10253841;28;20488;-76
2023/04/19 03:24:29;;;;;;;0.68;0.68;;;;;;;;;;10270387;28;20214;-75
2023/04/19 03:29:30;;;;;;;2.17;1.10;;;;;;;;;;10256746;28;20229;-75
2023/04/19 03:34:35;;;;;;;0.70;0.70;;;;;;;;;;10266553;28;20233;-74
2023/04/19 03:39:36;;;;;;;0.82;0.82;;;;;;;;;;10268967;28;20228;-75
2023/04/19 03:44:40;;;;;;;13.35;3.30;;;;;;;;;;10266181;28;20773;-74
2023/04/19 03:49:43;;;;;;;0.93;0.70;;;;;;;;;;10270806;28;20764;-76
2023/04/19 03:54:44;;;;;;;0.98;0.98;;;;;;;;;;10256912;28;20222;-76
2023/04/19 03:59:59;;;;;;;0.95;0.90;;;;;;;;;;10271113;28;20255;-74
2023/04/19 04:05:00;;;;;;;1.33;0.93;;;;;;;;;;10262793;28;20214;-75
2023/04/19 04:10:02;;;;;;;0.70;0.70;;;;;;;;;;10242527;28;20221;-75
2023/04/19 04:15:07;;;;;;;0.60;0.60;;;;;;;;;;10229718;28;20276;-75
2023/04/19 04:20:12;;;;;;;1.25;1.15;;;;;;;;;;10265243;28;20296;-76
2023/04/19 04:25:14;;;;;;;1.98;1.35;;;;;;;;;;10265963;28;20232;-76
2023/04/19 04:30:16;;;;;;;1.27;0.90;;;;;;;;;;10242630;28;20646;-74
2023/04/19 04:35:18;;;;;;;0.85;0.80;;;;;;;;;;10263468;28;20575;-75
2023/04/19 04:40:26;;;;;;;3.05;0.90;;;;;;;;;;10253760;28;20224;-75
2023/04/19 04:45:28;;;;;;;0.68;0.68;;;;;;;;;;10257978;28;20960;-75
2023/04/19 04:50:30;;;;;;;2.83;1.00;;;;;;;;;;10256449;28;20241;-76
2023/04/19 04:55:31;;;;;;;3.08;0.77;;;;;;;;;;10258716;28;20229;-74
2023/04/19 05:00:33;;;;;;;1.30;1.17;;;;;;;;;;10222556;28;20221;-74
2023/04/19 05:05:38;;;;;;;0.93;0.85;;;;;;;;;;10240235;28;20214;-76
2023/04/19 05:10:39;;;;;;;3.55;1.00;;;;;;;;;;10223648;28;20671;-74
2023/04/19 05:15:40;;;;;;;2.90;1.35;;;;;;;;;;10248167;28;20928;-76
2023/04/19 05:20:42;;;;;;;1.73;1.60;;;;;;;;;;10243495;28;20313;-75
2023/04/19 05:25:53;;;;;;;0.98;0.98;;;;;;;;;;10255603;28;20225;-77
2023/04/19 05:30:56;;;;;;;3.05;0.93;;;;;;;;;;10254971;28;20273;-74
2023/04/19 05:36:01;;;;;;;0.90;0.90;;;;;;;;;;10237841;28;20225;-76
2023/04/19 05:41:03;;;;;;;0.90;0.90;;;;;;;;;;10241038;28;20240;-74
2023/04/19 05:46:04;;;;;;;1.00;0.77;;;;;;;;;;10225160;28;22162;-75
2023/04/19 05:51:06;;;;;;;1.25;0.80;;;;;;;;;;10251428;28;20303;-74
2023/04/19 05:56:33;;;;;;;5.40;1.20;;;;;;;;;;10245117;28;20217;-75
2023/04/19 06:01:34;;;;;;;2.60;1.13;;;;;;;;;;10259145;28;20231;-78
2023/04/19 06:06:36;;;;;;;1.67;1.00;;;;;;;;;;10253456;28;20280;-75
2023/04/19 06:11:37;;;;;;;2.13;1.05;;;;;;;;;;10250371;28;20747;-75
2023/04/19 06:16:39;;;;;;;4.45;1.10;;;;;;;;;;10238804;28;20248;-74
2023/04/19 06:21:40;;;;;;;2.28;1.00;;;;;;;;;;10229657;28;20722;-77
2023/04/19 06:26:42;;;;;;;0.73;0.73;;;;;;;;;;10236672;28;20214;-75
2023/04/19 06:31:45;;;;;;;0.70;0.70;;;;;;;;;;10246096;28;20221;-75
2023/04/19 06:36:45;;;;;;;0.80;0.80;;;;;;;;;;10249047;28;20816;-75
2023/04/19 06:41:46;;;;;;;0.80;0.80;;;;;;;;;;10238569;28;20273;-75
2023/04/19 06:46:50;;;;;;;0.65;0.63;;;;;;;;;;10258989;28;20277;-76
2023/04/19 06:51:52;;;;;;;0.68;0.68;;;;;;;;;;10239589;28;20471;-74
2023/04/19 06:56:53;;;;;;;1.33;0.75;;;;;;;;;;10231451;28;20217;-77
2023/04/19 07:01:56;;;;;;;1.10;0.80;;;;;;;;;;10256759;28;20249;-74
2023/04/19 07:06:59;;;;;;;6.10;0.90;;;;;;;;;;10226615;28;20341;-79
2023/04/19 07:12:00;;;;;;;1.00;0.90;;;;;;;;;;10243037;28;20248;-79
2023/04/19 07:17:04;;;;;;;0.52;0.40;;;;;;;;;;10243996;28;21481;-77
2023/04/19 07:22:05;;;;;;;2.85;0.73;;;;;;;;;;10248612;28;20235;-74
2023/04/19 07:27:06;;;;;;;0.60;0.60;;;;;;;;;;10259522;28;20236;-78
2023/04/19 07:32:07;;;;;;;1.20;1.10;;;;;;;;;;10248070;28;20971;-77
2023/04/19 07:37:08;;;;;;;0.60;0.60;;;;;;;;;;10234390;28;20248;-77
2023/04/19 07:42:09;;;;;;;1.48;0.70;;;;;;;;;;10253842;28;20221;-76
2023/04/19 07:47:10;;;;;;;2.55;0.75;;;;;;;;;;10262256;28;20300;-75
2023/04/19 07:52:11;;;;;;;1.27;1.17;;;;;;;;;;10241526;28;20225;-75
2023/04/19 07:57:12;;;;;;;3.80;1.00;;;;;;;;;;10249591;28;20220;-78
2023/04/19 08:02:15;;;;;;;1.75;0.77;;;;;;;;;;10231375;28;20723;-76
2023/04/19 08:07:16;;;;;;;2.15;0.90;;;;;;;;;;10244018;28;20737;-75
2023/04/19 08:12:18;;;;;;;0.90;0.90;;;;;;;;;;10246042;28;20229;-75
2023/04/19 08:17:20;;;;;;;1.02;0.90;;;;;;;;;;10246036;28;20261;-78
2023/04/19 08:22:21;;;;;;;0.70;0.70;;;;;;;;;;10248052;28;20225;-79
2023/04/19 08:27:22;;;;;;;1.10;1.10;;;;;;;;;;10224310;28;20241;-78
2023/04/19 08:32:23;;;;;;;2.03;0.63;;;;;;;;;;10239327;28;20234;-79
2023/04/19 08:37:24;;;;;;;1.08;0.70;;;;;;;;;;10256731;28;20217;-78
2023/04/19 08:42:26;;;;;;;2.28;0.80;;;;;;;;;;10210612;28;20840;-80
2023/04/19 08:47:27;;;;;;;0.75;0.75;;;;;;;;;;10261380;28;20251;-79
2023/04/19 08:52:29;;;;;;;0.90;0.90;;;;;;;;;;10243950;28;20261;-79
2023/04/19 08:57:31;;;;;;;0.73;0.73;;;;;;;;;;10257456;28;21533;-79
2023/04/19 09:02:46;;;;;;;0.90;0.90;;;;;;;;;;10261609;28;20221;-79
2023/04/19 09:07:47;;;;;;;1.02;0.80;;;;;;;;;;10234602;28;20229;-79
2023/04/19 09:13:04;;;;;;;0.93;0.82;;;;;;;;;;10230747;28;20225;-79
2023/04/19 09:18:06;;;;;;;1.52;0.80;;;;;;;;;;10241923;28;20261;-78
2023/04/19 09:23:11;;;;;;;1.40;0.70;;;;;;;;;;10241536;28;20291;-79
2023/04/19 09:28:12;;;;;;;1.60;0.90;;;;;;;;;;10258483;28;21062;-79
2023/04/19 09:33:13;;;;;;;1.85;0.77;;;;;;;;;;10240476;28;20228;-79
2023/04/19 09:38:15;;;;;;;0.98;0.85;;;;;;;;;;10237563;28;20308;-78
2023/04/19 09:43:25;;;;;;;0.80;0.80;;;;;;;;;;10241163;28;20232;-79
2023/04/19 09:48:26;;;;;;;0.75;0.73;;;;;;;;;;10239890;28;20275;-77
2023/04/19 09:53:28;;;;;;;0.70;0.70;;;;;;;;;;10241953;28;20221;-78
2023/04/19 09:58:29;;;;;;;2.85;1.00;;;;;;;;;;10237559;28;20221;-79
2023/04/19 10:03:31;;;;;;;2.83;0.57;;;;;;;;;;10253531;28;20866;-78
2023/04/19 10:08:32;;;;;;;0.68;0.68;;;;;;;;;;10234732;28;20224;-77
2023/04/19 10:13:33;;;;;;;0.70;0.70;;;;;;;;;;10236951;28;20217;-78
2023/04/19 10:18:34;;;;;;;2.03;0.50;;;;;;;;;;10254236;28;20228;-77
2023/04/19 10:23:36;;;;;;;1.88;0.60;;;;;;;;;;10257956;28;20217;-79
2023/04/19 10:28:37;;;;;;;0.60;0.60;;;;;;;;;;10233495;28;20218;-77
2023/04/19 10:33:39;;;;;;;0.93;0.80;;;;;;;;;;10223695;28;20220;-77
2023/04/19 10:38:46;;;;;;;0.65;0.65;;;;;;;;;;10253444;28;20620;-77
2023/04/19 10:43:56;;;;;;;2.85;1.00;;;;;;;;;;10241426;28;20217;-76
2023/04/19 10:48:58;;;;;;;0.90;0.90;;;;;;;;;;10259622;28;20221;-78
2023/04/19 10:54:03;;;;;;;1.48;0.90;;;;;;;;;;10257878;28;20233;-78
2023/04/19 10:59:06;;;;;;;0.90;0.90;;;;;;;;;;10218760;28;20217;-78
2023/04/19 11:04:26;;;;;;;1.00;1.00;;;;;;;;;;10241115;28;20720;-77
2023/04/19 11:09:37;;;;;;;1.45;0.85;;;;;;;;;;10234108;28;20218;-77
2023/04/19 11:14:45;;;;;;;0.98;0.60;;;;;;;;;;10255354;28;20252;-76
2023/04/19 11:19:54;;;;;;;0.70;0.70;;;;;;;;;;10252092;28;20240;-77
2023/04/19 11:24:55;;;;;;;1.13;1.10;;;;;;;;;;10222427;28;20288;-78
2023/04/19 11:30:02;;;;;;;1.35;1.20;;;;;;;;;;10252944;28;20287;-77
2023/04/19 11:35:05;;;;;;;1.95;0.93;;;;;;;;;;10255919;28;20257;-76
2023/04/19 11:40:07;;;;;;;4.95;1.02;;;;;;;;;;10250454;28;20283;-76
2023/04/19 11:45:09;;;;;;;1.02;0.90;;;;;;;;;;10242267;28;20213;-78
2023/04/19 11:50:30;;;;;;;1.08;1.08;;;;;;;;;;10247811;28;20298;-78
2023/04/19 11:55:32;;;;;;;3.20;1.02;;;;;;;;;;10238980;28;20221;-76
2023/04/19 12:00:33;;;;;;;0.90;0.90;;;;;;;;;;10246325;28;20226;-78
2023/04/19 12:05:34;;;;;;;0.90;0.90;;;;;;;;;;10264827;28;20221;-77
2023/04/19 12:10:35;;;;;;;1.60;1.30;;;;;;;;;;10249834;28;20244;-77
2023/04/19 12:15:43;;;;;;;0.90;0.90;;;;;;;;;;10261746;28;20618;-78
2023/04/19 12:20:48;;;;;;;0.95;0.95;;;;;;;;;;10260294;28;20225;-77
2023/04/19 12:25:49;;;;;;;2.10;0.98;;;;;;;;;;10251654;28;20234;-78
2023/04/19 12:30:51;;;;;;;1.92;1.00;;;;;;;;;;10258712;28;20213;-77
2023/04/19 12:35:52;;;;;;;0.70;0.70;;;;;;;;;;10262041;28;20232;-77
2023/04/19 12:40:54;;;;;;;0.90;0.90;;;;;;;;;;10237340;28;20217;-78
2023/04/19 12:45:55;;;;;;;1.85;1.10;;;;;;;;;;10260767;28;20229;-78
2023/04/19 12:50:56;;;;;;;3.65;1.00;;;;;;;;;;10270090;28;20636;-78
2023/04/19 12:55:57;;;;;;;0.90;0.90;;;;;;;;;;10242779;28;20312;-78
2023/04/19 13:00:58;;;;;;;2.47;1.20;;;;;;;;;;10243763;28;20317;-79
2023/04/19 13:06:00;;;;;;;1.10;1.10;;;;;;;;;;10230424;28;20222;-78
2023/04/19 13:11:01;;;;;;;1.10;1.00;;;;;;;;;;10243915;28;20233;-79
2023/04/19 13:16:02;;;;;;;1.88;0.90;;;;;;;;;;10258608;28;20223;-78
2023/04/19 13:21:04;;;;;;;3.25;0.98;;;;;;;;;;10247076;28;20596;-78
2023/04/19 13:26:05;;;;;;;7.22;1.20;;;;;;;;;;10262974;28;20212;-78
2023/04/19 13:31:06;;;;;;;3.30;1.08;;;;;;;;;;10244135;28;20216;-78
2023/04/19 13:36:07;;;;;;;1.23;1.23;;;;;;;;;;10260909;28;20218;-78
2023/04/19 13:41:09;;;;;;;1.40;1.30;;;;;;;;;;10241164;28;20256;-76
2023/04/19 13:46:10;;;;;;;1.52;1.10;;;;;;;;;;10227392;28;20224;-78
2023/04/19 13:51:11;;;;;;;2.10;0.88;;;;;;;;;;10255786;28;20689;-77
2023/04/19 13:56:13;;;;;;;2.13;1.00;;;;;;;;;;10255323;28;20319;-77
2023/04/19 14:01:14;;;;;;;1.08;0.90;;;;;;;;;;10247291;28;21296;-78
2023/04/19 14:06:15;;;;;;;2.22;1.02;;;;;;;;;;10233708;28;20233;-77
2023/04/19 14:11:16;;;;;;;1.15;1.08;;;;;;;;;;10256074;28;20260;-78
2023/04/19 14:16:17;;;;;;;1.42;1.30;;;;;;;;;;10264030;28;20221;-76
2023/04/19 14:21:19;;;;;;;0.90;0.90;;;;;;;;;;10260135;28;20236;-77
2023/04/19 14:26:20;;;;;;;1.85;1.30;;;;;;;;;;10237848;28;20692;-78
2023/04/19 14:31:21;;;;;;;1.40;1.40;;;;;;;;;;10255439;28;20213;-78
2023/04/19 14:36:22;;;;;;;1.50;1.40;;;;;;;;;;10247058;28;20226;-79
2023/04/19 14:41:23;;;;;;;1.13;1.10;;;;;;;;;;10253219;28;20314;-78
2023/04/19 14:46:24;;;;;;;1.73;1.45;;;;;;;;;;10232208;28;20217;-79
2023/04/19 14:51:26;;;;;;;3.22;1.40;;;;;;;;;;10226193;28;20726;-78
2023/04/19 14:56:27;;;;;;;4.13;1.10;;;;;;;;;;10229282;28;20220;-79
2023/04/19 15:01:28;;;;;;;1.35;1.27;;;;;;;;;;10234185;28;20691;-80
2023/04/19 15:06:30;;;;;;;2.75;1.70;;;;;;;;;;10253786;28;20233;-77
2023/04/19 15:11:31;;;;;;;1.63;1.30;;;;;;;;;;10246783;28;20214;-77
2023/04/19 15:16:32;;;;;;;1.55;1.45;;;;;;;;;;10259483;28;21155;-76
2023/04/19 15:21:33;;;;;;;8.48;1.90;;;;;;;;;;10253040;28;20228;-78
2023/04/19 15:26:34;;;;;;;1.52;1.52;;;;;;;;;;10255662;28;21897;-78
2023/04/19 15:31:35;;;;;;;3.85;2.15;;;;;;;;;;10271485;28;20232;-77
2023/04/19 15:36:36;;;;;;;3.75;1.45;;;;;;;;;;10257909;28;20601;-78
2023/04/19 15:41:37;;;;;;;1.08;1.05;;;;;;;;;;10254397;28;20287;-77
2023/04/19 15:46:38;;;;;;;1.73;1.63;;;;;;;;;;10265867;28;20228;-75
2023/04/19 15:51:39;;;;;;;2.08;1.60;;;;;;;;;;10270047;28;20690;-78
2023/04/19 15:56:40;;;;;;;4.10;1.63;;;;;;;;;;10266065;28;20292;-76
2023/04/19 16:01:41;;;;;;;3.78;1.60;;;;;;;;;;10250967;28;20254;-77
2023/04/19 16:06:42;;;;;;;3.53;1.48;;;;;;;;;;10264583;28;20227;-81
2023/04/19 16:11:43;;;;;;;1.20;1.20;;;;;;;;;;10264270;28;20372;-78
2023/04/19 16:16:44;;;;;;;2.90;1.35;;;;;;;;;;10255169;28;20228;-78
2023/04/19 16:21:45;;;;;;;1.67;1.45;;;;;;;;;;10249863;28;20226;-79
2023/04/19 16:26:46;;;;;;;2.58;1.42;;;;;;;;;;10269324;28;20206;-77
2023/04/19 16:31:47;;;;;;;1.00;1.00;;;;;;;;;;10268186;28;20514;-78
2023/04/19 16:36:48;;;;;;;4.03;1.08;;;;;;;;;;10254878;28;20295;-78
2023/04/19 16:41:50;;;;;;;2.40;1.30;;;;;;;;;;10250082;28;20287;-77
2023/04/19 16:46:51;;;;;;;3.22;1.38;;;;;;;;;;10254954;28;20221;-79
2023/04/19 16:51:52;;;;;;;2.22;2.08;;;;;;;;;;10264302;28;20269;-78
2023/04/19 16:56:52;;;;;;;1.98;1.55;;;;;;;;;;10265669;28;20374;-77
2023/04/19 17:01:55;;;;;;;1.45;1.35;;;;;;;;;;10246082;28;20823;-78
2023/04/19 17:06:56;;;;;;;2.42;2.30;;;;;;;;;;10252659;28;20622;-82
2023/04/19 17:11:57;;;;;;;2.25;2.05;;;;;;;;;;10250807;28;21329;-79
2023/04/19 17:16:58;;;;;;;2.33;2.17;;;;;;;;;;10251330;28;20237;-76
2023/04/19 17:22:03;;;;;;;5.15;2.85;;;;;;;;;;10258182;28;20234;-78
2023/04/19 17:27:04;;;;;;;2.03;1.80;;;;;;;;;;10242853;28;20218;-75
2023/04/19 17:32:07;;;;;;;3.17;2.05;;;;;;;;;;10253705;28;21021;-80
2023/04/19 17:37:08;;;;;;;1.55;1.50;;;;;;;;;;10256119;28;20229;-80
2023/04/19 17:42:09;;;;;;;1.98;1.90;;;;;;;;;;10277389;28;20541;-77
2023/04/19 17:47:10;;;;;;;1.92;1.83;;;;;;;;;;10234496;28;20790;-78
2023/04/19 17:52:12;;;;;;;2.15;1.98;;;;;;;;;;10209661;28;20315;-79
2023/04/19 17:57:13;;;;;;;8.50;1.77;;;;;;;;;;10240461;28;20236;-79
2023/04/19 18:02:14;;;;;;;3.15;1.80;;;;;;;;;;10240737;28;20267;-77
2023/04/19 18:07:15;;;;;;;3.58;2.22;;;;;;;;;;10241360;28;20225;-78
2023/04/19 18:12:16;;;;;;;3.17;1.77;;;;;;;;;;10234261;28;20228;-81
2023/04/19 18:17:17;;;;;;;1.90;1.80;;;;;;;;;;10238273;28;20225;-79
2023/04/19 18:22:18;;;;;;;1.88;1.85;;;;;;;;;;10247490;28;20594;-81
2023/04/19 18:27:19;;;;;;;2.35;2.15;;;;;;;;;;10246092;28;20808;-79
2023/04/19 18:32:22;;;;;;;5.45;2.30;;;;;;;;;;10242461;28;24015;-80
2023/04/19 18:37:23;;;;;;;2.83;2.70;;;;;;;;;;10243519;28;20255;-79
2023/04/19 18:42:24;;;;;;;2.58;2.45;;;;;;;;;;10270641;28;20245;-79
2023/04/19 18:47:26;;;;;;;2.47;2.38;;;;;;;;;;10257598;28;20221;-77
2023/04/19 18:52:27;;;;;;;2.55;2.40;;;;;;;;;;10281109;28;20272;-80
2023/04/19 18:57:28;;;;;;;2.60;2.50;;;;;;;;;;10269090;28;20288;-81
2023/04/19 19:02:29;;;;;;;2.45;2.25;;;;;;;;;;10263614;28;21108;-81
2023/04/19 19:07:30;;;;;;;4.05;2.55;;;;;;;;;;10256210;28;20221;-79
2023/04/19 19:12:31;;;;;;;3.53;2.72;;;;;;;;;;10286083;28;20218;-79
2023/04/19 19:17:32;;;;;;;2.28;2.10;;;;;;;;;;10270668;28;20217;-79
2023/04/19 19:22:34;;;;;;;2.58;2.47;;;;;;;;;;10271172;28;20755;-80
2023/04/19 19:27:35;;;;;;;4.10;2.60;;;;;;;;;;10281120;28;20270;-79
2023/04/19 19:32:36;;;;;;;3.15;2.38;;;;;;;;;;10264311;28;20225;-80
2023/04/19 19:37:37;;;;;;;2.47;2.38;;;;;;;;;;10260262;28;20221;-81
2023/04/19 19:42:39;;;;;;;3.17;2.20;;;;;;;;;;10275598;28;20723;-76
2023/04/19 19:47:43;;;;;;;2.20;2.10;;;;;;;;;;10238827;28;20225;-77
2023/04/19 19:52:44;;;;;;;2.08;1.98;;;;;;;;;;10268664;28;20217;-80
2023/04/19 19:57:45;;;;;;;3.55;2.30;;;;;;;;;;10279634;28;20221;-79
2023/04/19 20:02:47;;;;;;;3.10;2.55;;;;;;;;;;10244850;28;20256;-80
2023/04/19 20:07:48;;;;;;;4.72;2.67;;;;;;;;;;10282729;28;20225;-80
2023/04/19 20:12:50;;;;;;;2.53;2.33;;;;;;;;;;10263903;28;20319;-80
2023/04/19 20:17:51;;;;;;;4.00;2.20;;;;;;;;;;10268944;28;20226;-80
2023/04/19 20:22:52;;;;;;;1.63;1.52;;;;;;;;;;10274611;28;20221;-78
2023/04/19 20:27:53;;;;;;;4.03;2.60;;;;;;;;;;10258295;28;20228;-79
2023/04/19 20:32:54;;;;;;;2.40;1.85;;;;;;;;;;10259509;28;20247;-80
2023/04/19 20:38:00;;;;;;;5.15;2.17;;;;;;;;;;10270679;28;20209;-79
2023/04/19 20:43:02;;;;;;;4.82;2.13;;;;;;;;;;10253306;28;20257;-78
2023/04/19 20:48:04;;;;;;;2.88;2.28;;;;;;;;;;10257819;28;20300;-79
2023/04/19 20:53:05;;;;;;;3.08;2.38;;;;;;;;;;10219899;28;20222;-79
2023/04/19 20:58:07;;;;;;;2.70;2.47;;;;;;;;;;10237043;28;20239;-76
2023/04/19 21:03:08;;;;;;;2.45;1.80;;;;;;;;;;10250189;28;20230;-78
2023/04/19 21:08:09;;;;;;;3.97;1.98;;;;;;;;;;10219349;28;20260;-77
2023/04/19 21:13:10;;;;;;;2.13;2.03;;;;;;;;;;10224619;28;20695;-78
2023/04/19 21:18:11;;;;;;;2.65;2.28;;;;;;;;;;10232487;28;20280;-77
2023/04/19 21:23:12;;;;;;;2.72;1.65;;;;;;;;;;10224748;28;20279;-77
2023/04/19 21:28:13;;;;;;;3.47;2.28;;;;;;;;;;10245185;28;20328;-79
2023/04/19 21:33:16;;;;;;;2.80;2.58;;;;;;;;;;10252288;28;20222;-76
2023/04/19 21:38:18;;;;;;;5.80;2.10;;;;;;;;;;10234738;28;20323;-78
2023/04/19 21:43:19;;;;;;;2.60;2.20;;;;;;;;;;10268475;28;20220;-77
2023/04/19 21:48:20;;;;;;;4.88;3.17;;;;;;;;;;10215946;28;20583;-78
2023/04/19 21:53:21;;;;;;;9.02;2.72;;;;;;;;;;10248542;28;20220;-76
2023/04/19 21:58:22;;;;;;;5.15;3.53;;;;;;;;;;10251046;28;20221;-79
2023/04/19 22:03:23;;;;;;;3.47;2.55;;;;;;;;;;10261100;28;21010;-77
2023/04/19 22:08:24;;;;;;;4.25;2.65;;;;;;;;;;10198167;28;20224;-76
2023/04/19 22:13:27;;;;;;;7.00;2.95;;;;;;;;;;10197248;28;20255;-78
2023/04/19 22:18:28;;;;;;;3.45;2.80;;;;;;;;;;10253934;28;20229;-79
2023/04/19 22:23:29;;;;;;;3.63;2.75;;;;;;;;;;10231498;28;20229;-80
2023/04/19 22:28:32;;;;;;;8.43;2.55;;;;;;;;;;10252163;28;20217;-79
2023/04/19 22:33:33;;;;;;;4.70;2.53;;;;;;;;;;10240205;28;20290;-76
2023/04/19 22:38:34;;;;;;;2.47;2.28;;;;;;;;;;10255197;28;20244;-79
2023/04/19 22:43:36;;;;;;;4.68;2.55;;;;;;;;;;10234475;28;21017;-78
2023/04/19 22:48:37;;;;;;;3.38;2.80;;;;;;;;;;10256823;28;20290;-75
2023/04/19 22:53:38;;;;;;;2.65;2.50;;;;;;;;;;10213709;28;20277;-77
2023/04/19 22:58:39;;;;;;;2.83;2.58;;;;;;;;;;10248965;28;20320;-80
2023/04/19 23:03:40;;;;;;;5.18;3.22;;;;;;;;;;10211721;28;20399;-78
2023/04/19 23:08:41;;;;;;;3.78;2.53;;;;;;;;;;10211484;28;20221;-78
2023/04/19 23:13:43;;;;;;;9.25;2.75;;;;;;;;;;10221700;28;20222;-80
2023/04/19 23:18:44;;;;;;;2.72;2.58;;;;;;;;;;10205786;28;20643;-76
2023/04/19 23:23:45;;;;;;;4.07;2.65;;;;;;;;;;10220753;28;20230;-79
2023/04/19 23:28:46;;;;;;;4.78;2.58;;;;;;;;;;10201233;28;20222;-76
2023/04/19 23:33:48;;;;;;;5.60;2.72;;;;;;;;;;10220539;28;20217;-79
2023/04/19 23:38:49;;;;;;;3.08;2.72;;;;;;;;;;10236130;28;22254;-79
2023/04/19 23:43:50;;;;;;;4.43;2.38;;;;;;;;;;10232614;28;20218;-79
2023/04/19 23:48:51;;;;;;;12.55;3.53;;;;;;;;;;10205343;28;20221;-79
2023/04/19 23:53:52;;;;;;;6.18;3.22;;;;;;;;;;10146064;28;20225;-77
2023/04/19 23:58:53;;;;;;;4.20;2.95;;;;;;;;;;10171818;28;20359;-76
